CST,Max TemperatureF,Mean TemperatureF,Min TemperatureF,Max Dew PointF,MeanDew PointF,Min DewpointF,Max Humidity, Mean Humidity, Min Humidity, Max Sea Level PressureIn, Mean Sea Level PressureIn, Min Sea Level PressureIn, Max VisibilityMiles, Mean VisibilityMiles, Min VisibilityMiles, Max Wind SpeedMPH, Mean Wind SpeedMPH, Max Gust SpeedMPH,PrecipitationIn, CloudCover, Events, WindDirDegrees
2014-1-1,56,50,43,55,50,40,100,92,83,30.29,30.14,30.03,9,4,2,6,1,10,0.20,8,Rain,96
2014-1-2,57,47,37,56,43,25,100,71,42,30.40,30.14,30.00,10,7,0,28,12,37,0.02,3,Fog-Rain,345
2014-1-3,47,39,30,30,24,19,85,60,34,30.48,30.38,30.28,10,10,10,14,5,18,0.00,0,,29
2014-1-4,62,45,27,47,36,23,92,74,55,30.27,30.14,30.00,10,10,10,13,4,17,0.00,4,,131
2014-1-5,71,52,32,63,49,23,89,77,64,30.26,29.97,29.84,10,9,1,28,12,37,0.18,7,Rain,292
2014-1-6,34,31,27,22,13,5,69,51,32,30.65,30.52,30.29,10,10,10,28,14,36,0.00,2,,352
2014-1-7,37,29,20,21,12,8,75,52,29,30.70,30.60,30.50,10,10,10,8,3,13,0.00,0,,11
2014-1-8,49,36,22,37,25,17,92,64,36,30.48,30.39,30.31,10,10,10,9,4,16,0.00,3,,110
2014-1-9,68,55,41,53,45,34,89,74,58,30.31,30.23,30.17,10,10,10,14,5,18,0.00,3,,137
2014-1-10,70,61,52,66,60,50,100,89,78,30.16,29.99,29.85,10,6,0,21,8,30,0.31,8,Fog-Rain-Thunderstorm,154
2014-1-11,71,67,64,66,49,27,100,61,22,30.13,29.96,29.84,10,9,2,22,13,29,0.34,5,Rain-Thunderstorm,274
2014-1-12,68,64,59,37,34,30,44,34,24,30.21,30.13,30.06,10,10,10,9,8,,0.00,2,,154
2014-1-13,68,63,60,64,60,59,100,94,87,30.07,29.93,29.84,10,8,3,15,11,24,0.00,6,Rain,200
2014-1-14,55,38,37,37,35,34,93,81,44,30.15,30.10,30.07,10,10,10,0,0,,0.00,0,,-1
2014-1-15,53,48,44,37,28,16,71,48,22,30.32,30.22,30.12,10,10,10,17,12,30,0.00,1,,337
2014-1-16,62,46,30,45,38,28,92,67,42,30.21,30.13,30.09,10,10,10,21,9,24,0.00,0,,186
2014-1-17,57,46,34,33,23,18,79,50,21,30.30,30.22,30.13,10,10,10,15,7,20,0.00,0,,314
2014-1-18,58,44,30,48,33,23,100,66,32,30.31,30.22,30.13,10,10,2,15,5,20,0.00,0,,184
2014-1-19,65,53,40,55,45,29,100,63,26,30.27,30.17,30.13,10,7,0,15,5,21,0.00,2,Fog,289
2014-1-20,71,53,35,56,46,35,100,76,52,30.14,30.05,29.97,10,4,0,15,4,21,0.00,2,Fog,199
2014-1-21,60,49,38,61,40,14,100,60,20,30.24,30.09,29.99,10,8,0,22,13,35,0.08,3,Fog-Rain,317
2014-1-22,56,50,44,36,29,22,72,55,38,30.26,30.21,30.16,10,10,10,12,4,14,0.00,0,,169
2014-1-23,58,44,30,39,33,25,82,66,49,30.60,30.37,30.17,10,10,9,29,12,37,T,5,Rain,39
2014-1-24,30,28,25,27,24,21,92,84,75,30.64,30.56,30.36,10,6,2,25,11,33,T,8,Rain-Snow,20
2014-1-25,53,39,24,40,30,20,89,72,54,30.36,30.21,30.06,10,10,10,15,6,19,0.00,1,,244
2014-1-26,64,51,38,53,46,36,100,82,64,30.05,29.95,29.85,10,7,2,16,5,20,0.00,2,,176
2014-1-27,61,49,37,60,49,14,100,67,34,30.15,29.95,29.84,10,5,0,24,10,32,0.04,8,Fog-Rain,36
2014-1-28,37,31,25,24,19,13,88,64,40,30.40,30.28,30.13,10,9,2,25,17,33,T,8,,14
2014-1-29,37,30,23,14,10,7,63,49,35,30.51,30.42,30.37,10,10,10,17,9,22,0.00,0,,21
2014-1-30,50,35,19,38,25,14,82,59,36,30.35,30.22,30.09,10,10,10,14,4,17,0.00,0,,159
2014-1-31,66,53,40,49,45,36,92,72,52,30.12,30.06,30.01,10,10,10,16,6,22,0.00,3,,146